sensor_id;sensor_type;location;lat;lon;timestamp;pressure;altitude;pressure_sealevel;temperature;humidity
16694;BME280;39538;52.196;9.892;2022-08-01T00:01:29;100367.31;;;19.08;100.00
16694;BME280;39538;52.196;9.892;2022-08-01T00:03:59;100363.47;;;19.02;100.00
16694;BME280;39538;52.196;9.892;2022-08-01T00:06:50;100364.28;;;19.03;100.00
16694;BME280;39538;52.196;9.892;2022-08-01T00:09:26;100352.34;;;19.05;100.00
16694;BME280;39538;52.196;9.892;2022-08-01T00:12:03;100360.44;;;19.05;100.00
16694;BME280;39538;52.196;9.892;2022-08-01T00:14:33;100360.28;;;19.07;100.00
16694;BME280;39538;52.196;9.892;2022-08-01T00:17:07;100354.88;;;19.07;100.00
16694;BME280;39538;52.196;9.892;2022-08-01T00:19:34;100364.63;;;19.08;100.00
16694;BME280;39538;52.196;9.892;2022-08-01T00:22:11;100352.69;;;19.10;100.00
16694;BME280;39538;52.196;9.892;2022-08-01T00:24:43;100355.53;;;19.09;100.00
16694;BME280;39538;52.196;9.892;2022-08-01T00:27:12;100344.47;;;19.12;100.00
16694;BME280;39538;52.196;9.892;2022-08-01T00:29:41;100356.06;;;19.12;100.00
16694;BME280;39538;52.196;9.892;2022-08-01T00:32:10;100355.03;;;19.13;100.00
16694;BME280;39538;52.196;9.892;2022-08-01T00:34:42;100346.13;;;19.13;100.00
16694;BME280;39538;52.196;9.892;2022-08-01T00:37:11;100351.50;;;19.13;100.00
16694;BME280;39538;52.196;9.892;2022-08-01T00:39:56;100348.13;;;19.11;100.00
16694;BME280;39538;52.196;9.892;2022-08-01T00:42:25;100354.53;;;19.18;100.00
16694;BME280;39538;52.196;9.892;2022-08-01T00:44:55;100349.81;;;19.20;100.00
16694;BME280;39538;52.196;9.892;2022-08-01T00:47:23;100352.00;;;19.25;100.00
16694;BME280;39538;52.196;9.892;2022-08-01T00:49:50;100356.22;;;19.27;100.00
16694;BME280;39538;52.196;9.892;2022-08-01T00:52:17;100361.28;;;19.30;100.00
16694;BME280;39538;52.196;9.892;2022-08-01T00:54:50;100344.78;;;19.33;100.00
16694;BME280;39538;52.196;9.892;2022-08-01T00:57:25;100353.69;;;19.34;100.00
16694;BME280;39538;52.196;9.892;2022-08-01T00:59:52;100348.97;;;19.36;100.00
16694;BME280;39538;52.196;9.892;2022-08-01T01:02:24;100357.88;;;19.36;100.00
16694;BME280;39538;52.196;9.892;2022-08-01T01:04:51;100346.28;;;19.36;100.00
16694;BME280;39538;52.196;9.892;2022-08-01T01:07:22;100347.13;;;19.36;100.00
16694;BME280;39538;52.196;9.892;2022-08-01T01:09:56;100351.34;;;19.31;100.00
16694;BME280;39538;52.196;9.892;2022-08-01T01:12:31;100347.81;;;19.30;100.00
16694;BME280;39538;52.196;9.892;2022-08-01T01:15:08;100350.16;;;19.33;100.00
16694;BME280;39538;52.196;9.892;2022-08-01T01:17:41;100348.31;;;19.34;100.00
16694;BME280;39538;52.196;9.892;2022-08-01T01:20:19;100342.91;;;19.34;100.00
16694;BME280;39538;52.196;9.892;2022-08-01T01:23:21;100349.47;;;19.31;100.00
16694;BME280;39538;52.196;9.892;2022-08-01T01:26:04;100350.66;;;19.29;100.00
16694;BME280;39538;52.196;9.892;2022-08-01T01:29:03;100352.53;;;19.28;100.00
16694;BME280;39538;52.196;9.892;2022-08-01T01:31:34;100345.78;;;19.24;100.00
16694;BME280;39538;52.196;9.892;2022-08-01T01:34:06;100348.47;;;19.24;100.00
16694;BME280;39538;52.196;9.892;2022-08-01T01:36:35;100358.91;;;19.27;100.00
16694;BME280;39538;52.196;9.892;2022-08-01T01:39:04;100359.56;;;19.29;100.00
16694;BME280;39538;52.196;9.892;2022-08-01T01:41:35;100355.53;;;19.33;100.00
16694;BME280;39538;52.196;9.892;2022-08-01T01:44:11;100353.50;;;19.27;100.00
16694;BME280;39538;52.196;9.892;2022-08-01T01:46:40;100363.97;;;19.30;100.00
16694;BME280;39538;52.196;9.892;2022-08-01T01:49:11;100356.41;;;19.26;100.00
16694;BME280;39538;52.196;9.892;2022-08-01T01:51:47;100360.91;;;19.25;100.00
16694;BME280;39538;52.196;9.892;2022-08-01T01:54:26;100360.75;;;19.27;100.00
16694;BME280;39538;52.196;9.892;2022-08-01T01:56:59;100357.38;;;19.25;100.00
16694;BME280;39538;52.196;9.892;2022-08-01T01:59:37;100352.34;;;19.22;100.00
16694;BME280;39538;52.196;9.892;2022-08-01T02:02:14;100353.34;;;19.21;100.00
16694;BME280;39538;52.196;9.892;2022-08-01T02:04:52;100356.22;;;19.19;100.00
16694;BME280;39538;52.196;9.892;2022-08-01T02:07:24;100345.28;;;19.21;100.00
16694;BME280;39538;52.196;9.892;2022-08-01T02:10:09;100351.69;;;19.20;100.00
16694;BME280;39538;52.196;9.892;2022-08-01T02:12:41;100349.16;;;19.18;100.00
16694;BME280;39538;52.196;9.892;2022-08-01T02:15:21;100353.88;;;19.24;100.00
16694;BME280;39538;52.196;9.892;2022-08-01T02:17:59;100362.28;;;19.21;100.00
16694;BME280;39538;52.196;9.892;2022-08-01T02:20:29;100350.66;;;19.21;100.00
16694;BME280;39538;52.196;9.892;2022-08-01T02:23:07;100354.22;;;19.21;100.00
16694;BME280;39538;52.196;9.892;2022-08-01T02:25:43;100351.69;;;19.20;100.00
16694;BME280;39538;52.196;9.892;2022-08-01T02:28:29;100362.09;;;19.23;100.00
16694;BME280;39538;52.196;9.892;2022-08-01T02:33:58;100354.88;;;19.23;100.00
16694;BME280;39538;52.196;9.892;2022-08-01T02:36:36;100355.72;;;19.24;100.00
16694;BME280;39538;52.196;9.892;2022-08-01T02:39:13;100363.28;;;19.28;100.00
16694;BME280;39538;52.196;9.892;2022-08-01T02:41:52;100369.16;;;19.32;100.00
16694;BME280;39538;52.196;9.892;2022-08-01T02:44:32;100369.34;;;19.30;100.00
16694;BME280;39538;52.196;9.892;2022-08-01T02:47:05;100384.47;;;19.31;100.00
16694;BME280;39538;52.196;9.892;2022-08-01T02:49:39;100375.91;;;19.28;100.00
16694;BME280;39538;52.196;9.892;2022-08-01T02:52:11;100383.31;;;19.26;100.00
16694;BME280;39538;52.196;9.892;2022-08-01T02:54:39;100382.47;;;19.17;100.00
16694;BME280;39538;52.196;9.892;2022-08-01T02:57:07;100383.47;;;19.08;100.00
16694;BME280;39538;52.196;9.892;2022-08-01T02:59:37;100374.38;;;19.01;100.00
16694;BME280;39538;52.196;9.892;2022-08-01T03:02:10;100380.41;;;18.94;100.00
16694;BME280;39538;52.196;9.892;2022-08-01T03:04:41;100380.06;;;18.89;100.00
16694;BME280;39538;52.196;9.892;2022-08-01T03:07:16;100383.59;;;18.82;100.00
16694;BME280;39538;52.196;9.892;2022-08-01T03:09:47;100375.00;;;18.78;100.00
16694;BME280;39538;52.196;9.892;2022-08-01T03:12:20;100386.91;;;18.75;100.00
16694;BME280;39538;52.196;9.892;2022-08-01T03:14:53;100382.69;;;18.73;100.00
16694;BME280;39538;52.196;9.892;2022-08-01T03:17:28;100390.09;;;18.71;100.00
16694;BME280;39538;52.196;9.892;2022-08-01T03:20:11;100390.78;;;18.73;100.00
16694;BME280;39538;52.196;9.892;2022-08-01T03:22:50;100385.06;;;18.68;100.00
16694;BME280;39538;52.196;9.892;2022-08-01T03:25:23;100392.09;;;18.69;100.00
16694;BME280;39538;52.196;9.892;2022-08-01T03:27:56;100398.16;;;18.71;100.00
16694;BME280;39538;52.196;9.892;2022-08-01T03:30:38;100395.47;;;18.71;100.00
16694;BME280;39538;52.196;9.892;2022-08-01T03:33:12;100390.09;;;18.71;100.00
16694;BME280;39538;52.196;9.892;2022-08-01T03:36:02;100387.25;;;18.72;100.00
16694;BME280;39538;52.196;9.892;2022-08-01T03:38:45;100393.81;;;18.78;100.00
16694;BME280;39538;52.196;9.892;2022-08-01T03:41:33;100403.41;;;18.81;100.00
16694;BME280;39538;52.196;9.892;2022-08-01T03:44:05;100404.59;;;18.78;100.00
16694;BME280;39538;52.196;9.892;2022-08-01T03:46:54;100397.19;;;18.80;100.00
16694;BME280;39538;52.196;9.892;2022-08-01T03:49:35;100408.97;;;18.79;100.00
16694;BME280;39538;52.196;9.892;2022-08-01T03:52:07;100399.88;;;18.80;100.00
16694;BME280;39538;52.196;9.892;2022-08-01T03:54:41;100402.09;;;18.77;100.00
16694;BME280;39538;52.196;9.892;2022-08-01T03:57:29;100397.16;;;18.72;100.00
16694;BME280;39538;52.196;9.892;2022-08-01T04:00:04;100404.06;;;18.74;100.00
16694;BME280;39538;52.196;9.892;2022-08-01T04:02:34;100415.53;;;18.77;100.00
16694;BME280;39538;52.196;9.892;2022-08-01T04:05:06;100414.13;;;18.72;100.00
16694;BME280;39538;52.196;9.892;2022-08-01T04:07:44;100413.59;;;18.69;100.00
16694;BME280;39538;52.196;9.892;2022-08-01T04:10:28;100410.41;;;18.65;100.00
16694;BME280;39538;52.196;9.892;2022-08-01T04:12:59;100414.97;;;18.65;100.00
16694;BME280;39538;52.196;9.892;2022-08-01T04:15:28;100419.66;;;18.63;100.00
16694;BME280;39538;52.196;9.892;2022-08-01T04:17:57;100418.97;;;18.61;100.00
16694;BME280;39538;52.196;9.892;2022-08-01T04:20:25;100421.97;;;18.58;100.00
16694;BME280;39538;52.196;9.892;2022-08-01T04:22:51;100414.91;;;18.57;100.00
16694;BME280;39538;52.196;9.892;2022-08-01T04:25:23;100426.00;;;18.53;100.00
16694;BME280;39538;52.196;9.892;2022-08-01T04:28:00;100439.44;;;18.53;100.00
16694;BME280;39538;52.196;9.892;2022-08-01T04:30:33;100440.13;;;18.56;100.00
16694;BME280;39538;52.196;9.892;2022-08-01T04:33:02;100434.41;;;18.59;100.00
16694;BME280;39538;52.196;9.892;2022-08-01T04:35:33;100441.13;;;18.54;100.00
16694;BME280;39538;52.196;9.892;2022-08-01T04:38:01;100449.53;;;18.60;100.00
16694;BME280;39538;52.196;9.892;2022-08-01T04:40:29;100452.72;;;18.55;100.00
16694;BME280;39538;52.196;9.892;2022-08-01T04:42:55;100462.13;;;18.59;100.00
16694;BME280;39538;52.196;9.892;2022-08-01T04:45:23;100465.03;;;18.66;100.00
16694;BME280;39538;52.196;9.892;2022-08-01T04:47:50;100465.56;;;18.69;100.00
16694;BME280;39538;52.196;9.892;2022-08-01T04:50:17;100463.72;;;18.70;100.00
16694;BME280;39538;52.196;9.892;2022-08-01T04:52:48;100461.50;;;18.73;100.00
16694;BME280;39538;52.196;9.892;2022-08-01T04:55:15;100473.78;;;18.76;100.00
16694;BME280;39538;52.196;9.892;2022-08-01T04:57:44;100472.00;;;18.77;100.00
16694;BME280;39538;52.196;9.892;2022-08-01T05:00:11;100464.44;;;18.80;100.00
16694;BME280;39538;52.196;9.892;2022-08-01T05:02:38;100473.53;;;18.87;100.00
16694;BME280;39538;52.196;9.892;2022-08-01T05:05:05;100481.78;;;18.94;100.00
16694;BME280;39538;52.196;9.892;2022-08-01T05:07:32;100473.72;;;18.94;100.00
16694;BME280;39538;52.196;9.892;2022-08-01T05:10:00;100474.06;;;18.99;100.00
16694;BME280;39538;52.196;9.892;2022-08-01T05:12:26;100473.56;;;19.04;100.00
16694;BME280;39538;52.196;9.892;2022-08-01T05:14:53;100469.88;;;19.05;100.00
16694;BME280;39538;52.196;9.892;2022-08-01T05:17:19;100476.59;;;19.09;100.00
16694;BME280;39538;52.196;9.892;2022-08-01T05:19:45;100488.22;;;19.09;100.00
16694;BME280;39538;52.196;9.892;2022-08-01T05:22:12;100491.06;;;19.08;100.00
16694;BME280;39538;52.196;9.892;2022-08-01T05:24:39;100491.41;;;19.13;100.00
16694;BME280;39538;52.196;9.892;2022-08-01T05:27:07;100489.06;;;19.10;100.00
16694;BME280;39538;52.196;9.892;2022-08-01T05:29:34;100487.06;;;19.12;100.00
16694;BME280;39538;52.196;9.892;2022-08-01T05:32:01;100490.06;;;19.09;100.00
16694;BME280;39538;52.196;9.892;2022-08-01T05:34:27;100497.97;;;19.10;100.00
16694;BME280;39538;52.196;9.892;2022-08-01T05:36:54;100497.13;;;19.10;100.00
16694;BME280;39538;52.196;9.892;2022-08-01T05:39:21;100490.06;;;19.09;100.00
16694;BME280;39538;52.196;9.892;2022-08-01T05:41:47;100496.66;;;19.14;100.00
16694;BME280;39538;52.196;9.892;2022-08-01T05:44:15;100498.16;;;19.17;100.00
16694;BME280;39538;52.196;9.892;2022-08-01T05:46:41;100499.84;;;19.18;100.00
16694;BME280;39538;52.196;9.892;2022-08-01T05:49:08;100497.81;;;19.20;100.00
16694;BME280;39538;52.196;9.892;2022-08-01T05:51:34;100496.13;;;19.11;100.00
16694;BME280;39538;52.196;9.892;2022-08-01T05:54:01;100504.00;;;19.04;100.00
16694;BME280;39538;52.196;9.892;2022-08-01T05:56:27;100508.03;;;19.00;100.00
16694;BME280;39538;52.196;9.892;2022-08-01T05:58:54;100498.47;;;18.98;100.00
16694;BME280;39538;52.196;9.892;2022-08-01T06:01:22;100505.84;;;18.95;100.00
16694;BME280;39538;52.196;9.892;2022-08-01T06:03:48;100507.19;;;19.00;100.00
16694;BME280;39538;52.196;9.892;2022-08-01T06:06:14;100511.56;;;19.01;100.00
16694;BME280;39538;52.196;9.892;2022-08-01T06:08:41;100516.81;;;19.02;100.00
16694;BME280;39538;52.196;9.892;2022-08-01T06:11:08;100518.81;;;19.00;100.00
16694;BME280;39538;52.196;9.892;2022-08-01T06:13:34;100515.94;;;19.02;100.00
16694;BME280;39538;52.196;9.892;2022-08-01T06:16:01;100514.94;;;19.03;100.00
16694;BME280;39538;52.196;9.892;2022-08-01T06:18:28;100518.63;;;19.02;100.00
16694;BME280;39538;52.196;9.892;2022-08-01T06:20:55;100520.31;;;19.03;100.00
16694;BME280;39538;52.196;9.892;2022-08-01T06:23:21;100518.31;;;19.05;100.00
16694;BME280;39538;52.196;9.892;2022-08-01T06:25:48;100519.34;;;19.12;100.00
16694;BME280;39538;52.196;9.892;2022-08-01T06:28:14;100529.81;;;19.23;100.00
16694;BME280;39538;52.196;9.892;2022-08-01T06:30:41;100527.28;;;19.30;100.00
16694;BME280;39538;52.196;9.892;2022-08-01T06:33:07;100532.34;;;19.41;100.00
16694;BME280;39538;52.196;9.892;2022-08-01T06:35:35;100535.06;;;19.49;100.00
16694;BME280;39538;52.196;9.892;2022-08-01T06:38:01;100537.44;;;19.61;100.00
16694;BME280;39538;52.196;9.892;2022-08-01T06:40:28;100546.38;;;19.69;100.00
16694;BME280;39538;52.196;9.892;2022-08-01T06:42:54;100543.69;;;19.77;100.00
16694;BME280;39538;52.196;9.892;2022-08-01T06:45:21;100550.09;;;19.85;100.00
16694;BME280;39538;52.196;9.892;2022-08-01T06:47:49;100534.94;;;19.92;100.00
16694;BME280;39538;52.196;9.892;2022-08-01T06:50:16;100541.69;;;19.96;100.00
16694;BME280;39538;52.196;9.892;2022-08-01T06:52:44;100546.38;;;20.02;100.00
16694;BME280;39538;52.196;9.892;2022-08-01T06:55:11;100546.06;;;20.05;100.00
16694;BME280;39538;52.196;9.892;2022-08-01T06:57:45;100548.56;;;20.07;100.00
16694;BME280;39538;52.196;9.892;2022-08-01T07:00:12;100538.66;;;20.07;100.00
16694;BME280;39538;52.196;9.892;2022-08-01T07:02:39;100545.53;;;20.02;100.00
16694;BME280;39538;52.196;9.892;2022-08-01T07:05:06;100546.72;;;19.99;100.00
16694;BME280;39538;52.196;9.892;2022-08-01T07:07:33;100546.03;;;19.97;100.00
16694;BME280;39538;52.196;9.892;2022-08-01T07:10:01;100556.66;;;19.82;100.00
16694;BME280;39538;52.196;9.892;2022-08-01T07:12:28;100550.22;;;19.67;100.00
16694;BME280;39538;52.196;9.892;2022-08-01T07:14:54;100557.63;;;19.56;100.00
16694;BME280;39538;52.196;9.892;2022-08-01T07:17:21;100550.69;;;19.46;100.00
16694;BME280;39538;52.196;9.892;2022-08-01T07:19:47;100562.09;;;19.31;100.00
16694;BME280;39538;52.196;9.892;2022-08-01T07:22:14;100563.44;;;19.27;100.00
16694;BME280;39538;52.196;9.892;2022-08-01T07:24:41;100558.22;;;19.26;100.00
16694;BME280;39538;52.196;9.892;2022-08-01T07:27:09;100564.59;;;19.25;100.00
16694;BME280;39538;52.196;9.892;2022-08-01T07:29:35;100559.03;;;19.18;100.00
16694;BME280;39538;52.196;9.892;2022-08-01T07:32:02;100563.72;;;19.16;100.00
16694;BME280;39538;52.196;9.892;2022-08-01T07:34:29;100569.13;;;19.16;100.00
16694;BME280;39538;52.196;9.892;2022-08-01T07:36:55;100567.28;;;19.25;100.00
16694;BME280;39538;52.196;9.892;2022-08-01T07:39:22;100568.81;;;19.27;100.00
16694;BME280;39538;52.196;9.892;2022-08-01T07:41:48;100572.03;;;19.39;100.00
16694;BME280;39538;52.196;9.892;2022-08-01T07:44:16;100575.75;;;19.46;100.00
16694;BME280;39538;52.196;9.892;2022-08-01T07:46:42;100572.59;;;19.59;100.00
16694;BME280;39538;52.196;9.892;2022-08-01T07:49:09;100581.53;;;19.68;100.00
16694;BME280;39538;52.196;9.892;2022-08-01T07:51:35;100572.66;;;19.75;100.00
16694;BME280;39538;52.196;9.892;2022-08-01T07:54:03;100578.06;;;19.84;100.00
16694;BME280;39538;52.196;9.892;2022-08-01T07:56:29;100573.84;;;19.89;100.00
16694;BME280;39538;52.196;9.892;2022-08-01T07:58:56;100582.78;;;19.98;100.00
16694;BME280;39538;52.196;9.892;2022-08-01T08:01:24;100584.78;;;20.04;100.00
16694;BME280;39538;52.196;9.892;2022-08-01T08:03:50;100595.25;;;20.07;100.00
16694;BME280;39538;52.196;9.892;2022-08-01T08:06:16;100592.69;;;20.06;100.00
16694;BME280;39538;52.196;9.892;2022-08-01T08:08:43;100597.75;;;20.09;100.00
16694;BME280;39538;52.196;9.892;2022-08-01T08:11:09;100599.28;;;20.03;100.00
16694;BME280;39538;52.196;9.892;2022-08-01T08:13:36;100596.22;;;20.06;99.92
16694;BME280;39538;52.196;9.892;2022-08-01T08:16:03;100602.63;;;20.13;100.00
16694;BME280;39538;52.196;9.892;2022-08-01T08:18:30;100595.91;;;20.26;100.00
16694;BME280;39538;52.196;9.892;2022-08-01T08:20:57;100606.00;;;20.32;100.00
16694;BME280;39538;52.196;9.892;2022-08-01T08:23:23;100595.22;;;20.40;100.00
16694;BME280;39538;52.196;9.892;2022-08-01T08:26:08;100599.06;;;20.54;99.64
16694;BME280;39538;52.196;9.892;2022-08-01T08:28:34;100600.22;;;20.76;98.48
16694;BME280;39538;52.196;9.892;2022-08-01T08:31:01;100598.16;;;20.86;97.73
16694;BME280;39538;52.196;9.892;2022-08-01T08:33:27;100601.88;;;20.93;96.85
16694;BME280;39538;52.196;9.892;2022-08-01T08:35:55;100611.06;;;21.07;94.97
16694;BME280;39538;52.196;9.892;2022-08-01T08:38:21;100607.38;;;21.08;94.03
16694;BME280;39538;52.196;9.892;2022-08-01T08:40:51;100616.13;;;21.10;93.70
16694;BME280;39538;52.196;9.892;2022-08-01T08:43:18;100597.25;;;21.10;93.04
16694;BME280;39538;52.196;9.892;2022-08-01T08:45:45;100616.59;;;21.22;92.32
16694;BME280;39538;52.196;9.892;2022-08-01T08:48:12;100617.72;;;21.27;91.72
16694;BME280;39538;52.196;9.892;2022-08-01T08:50:40;100622.59;;;21.32;91.31
16694;BME280;39538;52.196;9.892;2022-08-01T08:53:09;100624.09;;;21.35;91.22
16694;BME280;39538;52.196;9.892;2022-08-01T08:55:36;100626.50;;;21.30;90.48
16694;BME280;39538;52.196;9.892;2022-08-01T08:58:04;100627.19;;;21.23;91.26
16694;BME280;39538;52.196;9.892;2022-08-01T09:00:31;100631.44;;;21.26;90.95
16694;BME280;39538;52.196;9.892;2022-08-01T09:02:58;100634.13;;;21.26;90.76
16694;BME280;39538;52.196;9.892;2022-08-01T09:05:24;100638.81;;;21.32;90.12
16694;BME280;39538;52.196;9.892;2022-08-01T09:07:51;100641.88;;;21.29;88.91
16694;BME280;39538;52.196;9.892;2022-08-01T09:10:19;100644.25;;;21.24;88.01
16694;BME280;39538;52.196;9.892;2022-08-01T09:13:02;100639.19;;;21.21;88.56
16694;BME280;39538;52.196;9.892;2022-08-01T09:15:38;100646.97;;;21.16;87.58
16694;BME280;39538;52.196;9.892;2022-08-01T09:18:05;100652.38;;;21.16;87.76
16694;BME280;39538;52.196;9.892;2022-08-01T09:20:32;100655.78;;;21.49;86.57
16694;BME280;39538;52.196;9.892;2022-08-01T09:23:00;100643.44;;;22.09;86.01
16694;BME280;39538;52.196;9.892;2022-08-01T09:25:28;100659.25;;;22.58;82.90
16694;BME280;39538;52.196;9.892;2022-08-01T09:28:02;100661.91;;;22.66;78.34
16694;BME280;39538;52.196;9.892;2022-08-01T09:30:36;100666.84;;;22.63;78.68
16694;BME280;39538;52.196;9.892;2022-08-01T09:33:05;100661.84;;;22.51;77.76
16694;BME280;39538;52.196;9.892;2022-08-01T09:35:32;100667.25;;;22.37;78.81
16694;BME280;39538;52.196;9.892;2022-08-01T09:38:14;100675.31;;;22.22;78.37
16694;BME280;39538;52.196;9.892;2022-08-01T09:40:50;100673.16;;;22.09;79.14
16694;BME280;39538;52.196;9.892;2022-08-01T09:43:18;100675.28;;;21.99;80.05
16694;BME280;39538;52.196;9.892;2022-08-01T09:45:45;100670.72;;;21.99;79.63
16694;BME280;39538;52.196;9.892;2022-08-01T09:48:11;100682.13;;;21.86;79.81
16694;BME280;39538;52.196;9.892;2022-08-01T09:50:39;100677.41;;;21.80;80.02
16694;BME280;39538;52.196;9.892;2022-08-01T09:53:06;100687.59;;;21.70;79.72
16694;BME280;39538;52.196;9.892;2022-08-01T09:55:33;100693.06;;;21.62;79.58
16694;BME280;39538;52.196;9.892;2022-08-01T09:58:01;100689.41;;;21.46;80.64
16694;BME280;39538;52.196;9.892;2022-08-01T10:00:29;100687.56;;;21.47;82.28
16694;BME280;39538;52.196;9.892;2022-08-01T10:02:56;100694.78;;;21.46;81.86
16694;BME280;39538;52.196;9.892;2022-08-01T10:05:30;100691.63;;;21.43;81.86
16694;BME280;39538;52.196;9.892;2022-08-01T10:07:58;100703.75;;;21.47;82.93
16694;BME280;39538;52.196;9.892;2022-08-01T10:10:25;100700.72;;;21.42;83.15
16694;BME280;39538;52.196;9.892;2022-08-01T10:12:52;100709.00;;;21.32;81.17
16694;BME280;39538;52.196;9.892;2022-08-01T10:15:20;100700.84;;;20.93;80.68
16694;BME280;39538;52.196;9.892;2022-08-01T10:17:52;100703.88;;;20.90;81.73
16694;BME280;39538;52.196;9.892;2022-08-01T10:20:22;100707.78;;;20.87;81.55
16694;BME280;39538;52.196;9.892;2022-08-01T10:22:49;100702.72;;;20.84;80.98
16694;BME280;39538;52.196;9.892;2022-08-01T10:25:17;100704.56;;;20.83;81.07
16694;BME280;39538;52.196;9.892;2022-08-01T10:27:48;100704.06;;;20.88;82.15
16694;BME280;39538;52.196;9.892;2022-08-01T10:30:15;100701.03;;;20.91;81.90
16694;BME280;39538;52.196;9.892;2022-08-01T10:32:45;100700.00;;;21.00;80.94
16694;BME280;39538;52.196;9.892;2022-08-01T10:35:12;100703.50;;;21.17;81.27
16694;BME280;39538;52.196;9.892;2022-08-01T10:37:43;100697.53;;;21.30;79.93
16694;BME280;39538;52.196;9.892;2022-08-01T10:40:11;100697.84;;;21.43;79.70
16694;BME280;39538;52.196;9.892;2022-08-01T10:42:42;100698.16;;;21.49;79.44
16694;BME280;39538;52.196;9.892;2022-08-01T10:45:09;100699.69;;;21.51;78.77
16694;BME280;39538;52.196;9.892;2022-08-01T10:47:44;100695.16;;;21.75;79.01
16694;BME280;39538;52.196;9.892;2022-08-01T10:50:21;100699.34;;;21.85;78.03
16694;BME280;39538;52.196;9.892;2022-08-01T10:53:05;100705.41;;;21.87;76.42
16694;BME280;39538;52.196;9.892;2022-08-01T10:55:45;100701.59;;;21.74;76.17
16694;BME280;39538;52.196;9.892;2022-08-01T10:58:12;100702.81;;;21.63;76.38
16694;BME280;39538;52.196;9.892;2022-08-01T11:00:43;100711.97;;;21.54;77.97
16694;BME280;39538;52.196;9.892;2022-08-01T11:03:14;100714.06;;;21.43;77.84
16694;BME280;39538;52.196;9.892;2022-08-01T11:05:44;100701.75;;;21.33;77.29
16694;BME280;39538;52.196;9.892;2022-08-01T11:08:21;100705.78;;;21.37;77.21
16694;BME280;39538;52.196;9.892;2022-08-01T11:10:59;100704.59;;;21.48;76.22
16694;BME280;39538;52.196;9.892;2022-08-01T11:14:01;100703.03;;;21.53;75.65
16694;BME280;39538;52.196;9.892;2022-08-01T11:16:34;100703.50;;;21.65;74.56
16694;BME280;39538;52.196;9.892;2022-08-01T11:19:03;100700.53;;;21.83;74.85
16694;BME280;39538;52.196;9.892;2022-08-01T11:21:59;100701.06;;;22.56;72.37
16694;BME280;39538;52.196;9.892;2022-08-01T11:24:54;100709.06;;;23.91;68.50
16694;BME280;39538;52.196;9.892;2022-08-01T11:27:24;100709.41;;;24.67;65.91
16694;BME280;39538;52.196;9.892;2022-08-01T11:30:22;100712.97;;;24.96;63.05
16694;BME280;39538;52.196;9.892;2022-08-01T11:32:52;100715.78;;;24.81;63.41
16694;BME280;39538;52.196;9.892;2022-08-01T11:35:21;100712.50;;;24.43;63.48
16694;BME280;39538;52.196;9.892;2022-08-01T11:37:49;100713.91;;;24.17;64.36
16694;BME280;39538;52.196;9.892;2022-08-01T11:40:18;100710.19;;;23.96;64.96
16694;BME280;39538;52.196;9.892;2022-08-01T11:42:45;100720.00;;;23.68;64.45
16694;BME280;39538;52.196;9.892;2022-08-01T11:45:12;100719.63;;;23.86;65.02
16694;BME280;39538;52.196;9.892;2022-08-01T11:47:47;100719.06;;;24.48;64.86
16694;BME280;39538;52.196;9.892;2022-08-01T11:50:31;100724.88;;;24.95;63.50
16694;BME280;39538;52.196;9.892;2022-08-01T11:52:58;100726.00;;;25.07;61.87
16694;BME280;39538;52.196;9.892;2022-08-01T11:55:26;100729.59;;;24.86;61.77
16694;BME280;39538;52.196;9.892;2022-08-01T11:57:59;100720.53;;;24.51;62.48
16694;BME280;39538;52.196;9.892;2022-08-01T12:00:28;100725.75;;;24.31;62.03
16694;BME280;39538;52.196;9.892;2022-08-01T12:02:57;100726.19;;;24.13;61.89
16694;BME280;39538;52.196;9.892;2022-08-01T12:05:31;100727.38;;;23.89;63.24
16694;BME280;39538;52.196;9.892;2022-08-01T12:08:00;100723.50;;;23.62;64.14
16694;BME280;39538;52.196;9.892;2022-08-01T12:10:29;100732.06;;;23.35;64.57
16694;BME280;39538;52.196;9.892;2022-08-01T12:13:00;100731.53;;;23.10;65.01
16694;BME280;39538;52.196;9.892;2022-08-01T12:15:30;100730.25;;;22.98;66.51
16694;BME280;39538;52.196;9.892;2022-08-01T12:18:02;100727.53;;;22.98;67.65
16694;BME280;39538;52.196;9.892;2022-08-01T12:20:33;100725.56;;;23.15;66.50
16694;BME280;39538;52.196;9.892;2022-08-01T12:23:02;100733.28;;;23.77;65.64
16694;BME280;39538;52.196;9.892;2022-08-01T12:25:30;100728.19;;;24.26;62.58
16694;BME280;39538;52.196;9.892;2022-08-01T12:28:01;100735.06;;;24.43;61.99
16694;BME280;39538;52.196;9.892;2022-08-01T12:30:32;100726.72;;;24.66;61.00
16694;BME280;39538;52.196;9.892;2022-08-01T12:33:00;100721.25;;;25.16;59.40
16694;BME280;39538;52.196;9.892;2022-08-01T12:35:29;100731.22;;;25.37;59.00
16694;BME280;39538;52.196;9.892;2022-08-01T12:37:59;100734.97;;;25.36;58.50
16694;BME280;39538;52.196;9.892;2022-08-01T12:40:27;100741.78;;;25.18;58.85
16694;BME280;39538;52.196;9.892;2022-08-01T12:42:56;100736.44;;;24.82;58.03
16694;BME280;39538;52.196;9.892;2022-08-01T12:45:25;100730.47;;;24.65;59.62
16694;BME280;39538;52.196;9.892;2022-08-01T12:47:53;100739.31;;;24.31;60.57
16694;BME280;39538;52.196;9.892;2022-08-01T12:50:23;100737.81;;;24.28;62.10
16694;BME280;39538;52.196;9.892;2022-08-01T12:52:53;100730.94;;;24.47;61.43
16694;BME280;39538;52.196;9.892;2022-08-01T12:55:22;100730.84;;;24.84;60.27
16694;BME280;39538;52.196;9.892;2022-08-01T12:58:06;100738.56;;;25.36;55.81
16694;BME280;39538;52.196;9.892;2022-08-01T13:00:33;100734.69;;;25.65;56.37
16694;BME280;39538;52.196;9.892;2022-08-01T13:03:02;100730.16;;;25.79;54.71
16694;BME280;39538;52.196;9.892;2022-08-01T13:05:40;100729.03;;;26.09;54.25